sensor_id;sensor_type;location;lat;lon;timestamp;P1;durP1;ratioP1;P2;durP2;ratioP2
68386;SDS011;55338;43.062;25.624;2023-04-25T00:01:23;11.98;;;7.45;;
68386;SDS011;55338;43.062;25.624;2023-04-25T00:03:49;10.82;;;6.72;;
68386;SDS011;55338;43.062;25.624;2023-04-25T00:06:15;11.37;;;6.63;;
68386;SDS011;55338;43.062;25.624;2023-04-25T00:08:42;11.07;;;6.53;;
68386;SDS011;55338;43.062;25.624;2023-04-25T00:11:08;12.98;;;6.43;;
68386;SDS011;55338;43.062;25.624;2023-04-25T00:13:34;11.53;;;6.23;;
68386;SDS011;55338;43.062;25.624;2023-04-25T00:16:00;11.07;;;5.97;;
68386;SDS011;55338;43.062;25.624;2023-04-25T00:18:27;10.90;;;5.93;;
68386;SDS011;55338;43.062;25.624;2023-04-25T00:20:54;9.25;;;5.60;;
68386;SDS011;55338;43.062;25.624;2023-04-25T00:23:20;9.20;;;5.50;;
68386;SDS011;55338;43.062;25.624;2023-04-25T00:25:47;10.88;;;5.75;;
68386;SDS011;55338;43.062;25.624;2023-04-25T00:28:14;9.20;;;5.85;;
68386;SDS011;55338;43.062;25.624;2023-04-25T00:30:40;9.52;;;5.38;;
68386;SDS011;55338;43.062;25.624;2023-04-25T00:33:07;12.43;;;6.10;;
68386;SDS011;55338;43.062;25.624;2023-04-25T00:35:34;9.80;;;5.18;;
68386;SDS011;55338;43.062;25.624;2023-04-25T00:38:00;10.50;;;5.72;;
68386;SDS011;55338;43.062;25.624;2023-04-25T00:40:26;14.77;;;6.35;;
68386;SDS011;55338;43.062;25.624;2023-04-25T00:42:52;11.07;;;5.82;;
68386;SDS011;55338;43.062;25.624;2023-04-25T00:45:18;11.70;;;5.65;;
68386;SDS011;55338;43.062;25.624;2023-04-25T00:47:45;12.05;;;6.13;;
68386;SDS011;55338;43.062;25.624;2023-04-25T00:50:12;10.50;;;6.53;;
68386;SDS011;55338;43.062;25.624;2023-04-25T00:52:39;10.95;;;6.00;;
68386;SDS011;55338;43.062;25.624;2023-04-25T00:55:06;9.15;;;5.85;;
68386;SDS011;55338;43.062;25.624;2023-04-25T00:57:33;11.52;;;6.05;;
68386;SDS011;55338;43.062;25.624;2023-04-25T00:59:59;11.18;;;6.38;;
68386;SDS011;55338;43.062;25.624;2023-04-25T01:02:26;10.27;;;5.25;;
68386;SDS011;55338;43.062;25.624;2023-04-25T01:04:52;10.38;;;5.78;;
68386;SDS011;55338;43.062;25.624;2023-04-25T01:07:18;10.00;;;5.93;;
68386;SDS011;55338;43.062;25.624;2023-04-25T01:09:44;12.50;;;5.60;;
68386;SDS011;55338;43.062;25.624;2023-04-25T01:12:10;14.48;;;5.60;;
68386;SDS011;55338;43.062;25.624;2023-04-25T01:14:36;10.20;;;5.80;;
68386;SDS011;55338;43.062;25.624;2023-04-25T01:17:02;8.83;;;5.60;;
68386;SDS011;55338;43.062;25.624;2023-04-25T01:19:27;11.10;;;5.57;;
68386;SDS011;55338;43.062;25.624;2023-04-25T01:21:54;9.13;;;5.28;;
68386;SDS011;55338;43.062;25.624;2023-04-25T01:24:20;10.70;;;6.23;;
68386;SDS011;55338;43.062;25.624;2023-04-25T01:26:46;10.23;;;5.28;;
68386;SDS011;55338;43.062;25.624;2023-04-25T01:29:16;10.27;;;5.82;;
68386;SDS011;55338;43.062;25.624;2023-04-25T01:31:42;10.10;;;5.50;;
68386;SDS011;55338;43.062;25.624;2023-04-25T01:34:09;9.30;;;5.35;;
68386;SDS011;55338;43.062;25.624;2023-04-25T01:36:35;8.60;;;5.80;;
68386;SDS011;55338;43.062;25.624;2023-04-25T01:39:01;9.82;;;5.03;;
68386;SDS011;55338;43.062;25.624;2023-04-25T01:41:28;12.40;;;5.97;;
68386;SDS011;55338;43.062;25.624;2023-04-25T01:43:54;9.07;;;5.45;;
68386;SDS011;55338;43.062;25.624;2023-04-25T01:46:20;9.90;;;5.78;;
68386;SDS011;55338;43.062;25.624;2023-04-25T01:48:46;9.52;;;5.53;;
68386;SDS011;55338;43.062;25.624;2023-04-25T01:51:12;11.93;;;5.60;;
68386;SDS011;55338;43.062;25.624;2023-04-25T01:53:38;11.05;;;5.13;;
68386;SDS011;55338;43.062;25.624;2023-04-25T01:56:05;9.63;;;5.63;;
68386;SDS011;55338;43.062;25.624;2023-04-25T01:58:31;13.73;;;6.22;;
68386;SDS011;55338;43.062;25.624;2023-04-25T02:00:57;10.37;;;5.33;;
68386;SDS011;55338;43.062;25.624;2023-04-25T02:03:22;9.98;;;5.40;;
68386;SDS011;55338;43.062;25.624;2023-04-25T02:05:48;9.63;;;5.17;;
68386;SDS011;55338;43.062;25.624;2023-04-25T02:08:15;8.60;;;5.30;;
68386;SDS011;55338;43.062;25.624;2023-04-25T02:10:42;8.68;;;5.20;;
68386;SDS011;55338;43.062;25.624;2023-04-25T02:13:08;9.20;;;5.60;;
68386;SDS011;55338;43.062;25.624;2023-04-25T02:15:34;9.63;;;5.22;;
68386;SDS011;55338;43.062;25.624;2023-04-25T02:17:59;9.52;;;5.65;;
68386;SDS011;55338;43.062;25.624;2023-04-25T02:20:26;9.70;;;5.68;;
68386;SDS011;55338;43.062;25.624;2023-04-25T02:22:53;9.80;;;5.25;;
68386;SDS011;55338;43.062;25.624;2023-04-25T02:25:19;8.05;;;5.22;;
68386;SDS011;55338;43.062;25.624;2023-04-25T02:27:48;7.78;;;5.03;;
68386;SDS011;55338;43.062;25.624;2023-04-25T02:30:15;9.70;;;5.45;;
68386;SDS011;55338;43.062;25.624;2023-04-25T02:32:41;9.07;;;5.37;;
68386;SDS011;55338;43.062;25.624;2023-04-25T02:35:07;9.68;;;5.28;;
68386;SDS011;55338;43.062;25.624;2023-04-25T02:37:33;7.83;;;4.77;;
68386;SDS011;55338;43.062;25.624;2023-04-25T02:40:00;9.50;;;5.90;;
68386;SDS011;55338;43.062;25.624;2023-04-25T02:42:27;10.13;;;5.80;;
68386;SDS011;55338;43.062;25.624;2023-04-25T02:44:53;10.63;;;5.97;;
68386;SDS011;55338;43.062;25.624;2023-04-25T02:47:18;9.82;;;5.60;;
68386;SDS011;55338;43.062;25.624;2023-04-25T02:49:44;10.13;;;6.13;;
68386;SDS011;55338;43.062;25.624;2023-04-25T02:52:10;10.88;;;5.75;;
68386;SDS011;55338;43.062;25.624;2023-04-25T02:54:37;12.48;;;5.65;;
68386;SDS011;55338;43.062;25.624;2023-04-25T02:57:03;9.48;;;5.85;;
68386;SDS011;55338;43.062;25.624;2023-04-25T02:59:29;8.18;;;5.03;;
68386;SDS011;55338;43.062;25.624;2023-04-25T03:01:55;9.33;;;5.87;;
68386;SDS011;55338;43.062;25.624;2023-04-25T03:04:21;10.82;;;6.20;;
68386;SDS011;55338;43.062;25.624;2023-04-25T03:06:48;10.20;;;5.60;;
68386;SDS011;55338;43.062;25.624;2023-04-25T03:09:18;9.20;;;4.77;;
68386;SDS011;55338;43.062;25.624;2023-04-25T03:11:44;8.35;;;5.32;;
68386;SDS011;55338;43.062;25.624;2023-04-25T03:14:11;9.43;;;5.38;;
68386;SDS011;55338;43.062;25.624;2023-04-25T03:16:37;11.55;;;6.00;;
68386;SDS011;55338;43.062;25.624;2023-04-25T03:19:03;11.27;;;5.13;;
68386;SDS011;55338;43.062;25.624;2023-04-25T03:21:30;9.83;;;5.70;;
68386;SDS011;55338;43.062;25.624;2023-04-25T03:24:00;9.88;;;5.40;;
68386;SDS011;55338;43.062;25.624;2023-04-25T03:26:27;8.38;;;4.95;;
68386;SDS011;55338;43.062;25.624;2023-04-25T03:28:53;9.52;;;6.00;;
68386;SDS011;55338;43.062;25.624;2023-04-25T03:31:19;12.87;;;5.10;;
68386;SDS011;55338;43.062;25.624;2023-04-25T03:33:45;8.65;;;5.13;;
68386;SDS011;55338;43.062;25.624;2023-04-25T03:36:10;12.60;;;6.88;;
68386;SDS011;55338;43.062;25.624;2023-04-25T03:38:36;11.40;;;6.70;;
68386;SDS011;55338;43.062;25.624;2023-04-25T03:41:02;11.02;;;5.90;;
68386;SDS011;55338;43.062;25.624;2023-04-25T03:43:28;7.60;;;4.80;;
68386;SDS011;55338;43.062;25.624;2023-04-25T03:45:54;9.93;;;5.55;;
68386;SDS011;55338;43.062;25.624;2023-04-25T03:48:20;11.00;;;5.93;;
68386;SDS011;55338;43.062;25.624;2023-04-25T03:50:49;9.85;;;5.70;;
68386;SDS011;55338;43.062;25.624;2023-04-25T03:53:15;11.40;;;5.90;;
68386;SDS011;55338;43.062;25.624;2023-04-25T03:55:41;9.32;;;5.55;;
68386;SDS011;55338;43.062;25.624;2023-04-25T03:58:07;10.67;;;6.20;;
68386;SDS011;55338;43.062;25.624;2023-04-25T04:00:34;14.45;;;6.40;;
68386;SDS011;55338;43.062;25.624;2023-04-25T04:03:00;10.13;;;5.38;;
68386;SDS011;55338;43.062;25.624;2023-04-25T04:05:26;10.13;;;5.90;;
68386;SDS011;55338;43.062;25.624;2023-04-25T04:07:52;9.70;;;5.95;;
68386;SDS011;55338;43.062;25.624;2023-04-25T04:10:18;11.15;;;5.93;;
68386;SDS011;55338;43.062;25.624;2023-04-25T04:12:44;9.60;;;5.70;;
68386;SDS011;55338;43.062;25.624;2023-04-25T04:15:10;10.93;;;6.00;;
68386;SDS011;55338;43.062;25.624;2023-04-25T04:17:35;10.77;;;6.10;;
68386;SDS011;55338;43.062;25.624;2023-04-25T04:20:01;10.67;;;6.40;;
68386;SDS011;55338;43.062;25.624;2023-04-25T04:22:28;9.82;;;6.18;;
68386;SDS011;55338;43.062;25.624;2023-04-25T04:24:54;9.55;;;5.30;;
68386;SDS011;55338;43.062;25.624;2023-04-25T04:27:21;12.80;;;6.27;;
68386;SDS011;55338;43.062;25.624;2023-04-25T04:29:48;12.85;;;6.38;;
68386;SDS011;55338;43.062;25.624;2023-04-25T04:32:15;10.50;;;5.80;;
68386;SDS011;55338;43.062;25.624;2023-04-25T04:34:42;12.52;;;6.20;;
68386;SDS011;55338;43.062;25.624;2023-04-25T04:37:08;10.57;;;5.97;;
68386;SDS011;55338;43.062;25.624;2023-04-25T04:39:34;11.40;;;6.47;;
68386;SDS011;55338;43.062;25.624;2023-04-25T04:42:01;11.68;;;6.60;;
68386;SDS011;55338;43.062;25.624;2023-04-25T04:44:28;12.38;;;6.68;;
68386;SDS011;55338;43.062;25.624;2023-04-25T04:46:57;8.93;;;5.50;;
68386;SDS011;55338;43.062;25.624;2023-04-25T04:49:24;10.63;;;6.10;;
68386;SDS011;55338;43.062;25.624;2023-04-25T04:51:49;10.60;;;5.78;;
68386;SDS011;55338;43.062;25.624;2023-04-25T04:54:15;11.95;;;6.00;;
68386;SDS011;55338;43.062;25.624;2023-04-25T04:56:41;12.57;;;6.10;;
68386;SDS011;55338;43.062;25.624;2023-04-25T04:59:07;10.55;;;6.53;;
68386;SDS011;55338;43.062;25.624;2023-04-25T05:01:33;12.35;;;6.10;;
68386;SDS011;55338;43.062;25.624;2023-04-25T05:04:01;12.03;;;6.20;;
68386;SDS011;55338;43.062;25.624;2023-04-25T05:06:28;11.07;;;5.72;;
68386;SDS011;55338;43.062;25.624;2023-04-25T05:08:55;10.23;;;6.05;;
68386;SDS011;55338;43.062;25.624;2023-04-25T05:11:22;14.48;;;6.82;;
68386;SDS011;55338;43.062;25.624;2023-04-25T05:13:52;10.95;;;5.47;;
68386;SDS011;55338;43.062;25.624;2023-04-25T05:16:18;9.70;;;5.83;;
68386;SDS011;55338;43.062;25.624;2023-04-25T05:18:45;11.10;;;6.18;;
68386;SDS011;55338;43.062;25.624;2023-04-25T05:21:11;111.97;;;39.08;;
68386;SDS011;55338;43.062;25.624;2023-04-25T05:23:37;106.03;;;37.97;;
68386;SDS011;55338;43.062;25.624;2023-04-25T05:26:03;92.68;;;32.38;;
68386;SDS011;55338;43.062;25.624;2023-04-25T05:28:29;41.03;;;15.88;;
68386;SDS011;55338;43.062;25.624;2023-04-25T05:30:55;18.42;;;8.43;;
68386;SDS011;55338;43.062;25.624;2023-04-25T05:33:21;20.77;;;7.88;;
68386;SDS011;55338;43.062;25.624;2023-04-25T05:35:48;19.20;;;8.30;;
68386;SDS011;55338;43.062;25.624;2023-04-25T05:38:14;16.65;;;8.25;;
68386;SDS011;55338;43.062;25.624;2023-04-25T05:40:39;17.77;;;8.03;;
68386;SDS011;55338;43.062;25.624;2023-04-25T05:43:05;15.77;;;8.02;;
68386;SDS011;55338;43.062;25.624;2023-04-25T05:45:32;20.00;;;8.60;;
68386;SDS011;55338;43.062;25.624;2023-04-25T05:47:58;14.60;;;7.75;;
68386;SDS011;55338;43.062;25.624;2023-04-25T05:50:23;15.40;;;8.53;;
68386;SDS011;55338;43.062;25.624;2023-04-25T05:52:50;14.02;;;8.98;;
68386;SDS011;55338;43.062;25.624;2023-04-25T05:55:15;17.17;;;9.52;;
68386;SDS011;55338;43.062;25.624;2023-04-25T05:57:41;14.25;;;8.27;;
68386;SDS011;55338;43.062;25.624;2023-04-25T06:00:11;18.20;;;10.25;;
68386;SDS011;55338;43.062;25.624;2023-04-25T06:02:38;18.40;;;10.60;;
68386;SDS011;55338;43.062;25.624;2023-04-25T06:05:04;14.83;;;9.77;;
68386;SDS011;55338;43.062;25.624;2023-04-25T06:07:30;12.98;;;7.68;;
68386;SDS011;55338;43.062;25.624;2023-04-25T06:09:56;11.80;;;6.40;;
68386;SDS011;55338;43.062;25.624;2023-04-25T06:12:22;15.23;;;6.53;;
68386;SDS011;55338;43.062;25.624;2023-04-25T06:14:47;10.63;;;6.82;;
68386;SDS011;55338;43.062;25.624;2023-04-25T06:17:13;10.07;;;6.07;;
68386;SDS011;55338;43.062;25.624;2023-04-25T06:19:39;10.68;;;6.00;;
68386;SDS011;55338;43.062;25.624;2023-04-25T06:22:05;12.20;;;6.80;;
68386;SDS011;55338;43.062;25.624;2023-04-25T06:24:32;13.32;;;6.40;;
68386;SDS011;55338;43.062;25.624;2023-04-25T06:26:58;10.32;;;5.50;;
68386;SDS011;55338;43.062;25.624;2023-04-25T06:29:24;13.02;;;5.65;;
68386;SDS011;55338;43.062;25.624;2023-04-25T06:31:49;10.13;;;5.22;;
68386;SDS011;55338;43.062;25.624;2023-04-25T06:34:15;9.00;;;5.18;;
68386;SDS011;55338;43.062;25.624;2023-04-25T06:36:41;10.23;;;4.47;;
68386;SDS011;55338;43.062;25.624;2023-04-25T06:39:08;7.78;;;4.15;;
68386;SDS011;55338;43.062;25.624;2023-04-25T06:41:34;7.25;;;3.53;;
68386;SDS011;55338;43.062;25.624;2023-04-25T06:44:00;5.75;;;3.25;;
68386;SDS011;55338;43.062;25.624;2023-04-25T06:46:26;7.05;;;3.42;;
68386;SDS011;55338;43.062;25.624;2023-04-25T06:48:51;7.43;;;3.53;;
68386;SDS011;55338;43.062;25.624;2023-04-25T06:51:17;7.73;;;4.00;;
68386;SDS011;55338;43.062;25.624;2023-04-25T06:53:43;8.73;;;3.75;;
68386;SDS011;55338;43.062;25.624;2023-04-25T06:56:09;8.85;;;3.20;;
68386;SDS011;55338;43.062;25.624;2023-04-25T06:58:35;8.07;;;3.10;;
68386;SDS011;55338;43.062;25.624;2023-04-25T07:01:00;7.57;;;3.53;;
68386;SDS011;55338;43.062;25.624;2023-04-25T07:03:26;4.83;;;3.13;;
68386;SDS011;55338;43.062;25.624;2023-04-25T07:05:52;4.80;;;2.92;;
68386;SDS011;55338;43.062;25.624;2023-04-25T07:08:18;7.97;;;3.57;;
68386;SDS011;55338;43.062;25.624;2023-04-25T07:10:43;11.88;;;4.63;;
68386;SDS011;55338;43.062;25.624;2023-04-25T07:13:11;9.30;;;3.60;;
68386;SDS011;55338;43.062;25.624;2023-04-25T07:15:36;12.80;;;3.50;;
68386;SDS011;55338;43.062;25.624;2023-04-25T07:18:02;7.53;;;3.20;;
68386;SDS011;55338;43.062;25.624;2023-04-25T07:20:28;8.48;;;3.08;;
68386;SDS011;55338;43.062;25.624;2023-04-25T07:22:56;5.63;;;3.00;;
68386;SDS011;55338;43.062;25.624;2023-04-25T07:25:22;6.30;;;2.90;;
68386;SDS011;55338;43.062;25.624;2023-04-25T07:27:48;4.95;;;3.22;;
68386;SDS011;55338;43.062;25.624;2023-04-25T07:30:13;8.60;;;3.00;;
68386;SDS011;55338;43.062;25.624;2023-04-25T07:32:40;10.43;;;3.37;;
68386;SDS011;55338;43.062;25.624;2023-04-25T07:35:06;7.65;;;2.83;;
68386;SDS011;55338;43.062;25.624;2023-04-25T07:37:35;8.80;;;3.17;;
68386;SDS011;55338;43.062;25.624;2023-04-25T07:40:01;8.88;;;3.30;;
68386;SDS011;55338;43.062;25.624;2023-04-25T07:42:29;6.87;;;3.07;;
68386;SDS011;55338;43.062;25.624;2023-04-25T07:44:55;7.30;;;2.78;;
68386;SDS011;55338;43.062;25.624;2023-04-25T07:47:21;5.07;;;2.65;;
68386;SDS011;55338;43.062;25.624;2023-04-25T07:49:46;4.90;;;2.40;;
68386;SDS011;55338;43.062;25.624;2023-04-25T07:52:12;7.70;;;2.67;;
68386;SDS011;55338;43.062;25.624;2023-04-25T07:54:38;11.73;;;2.70;;
68386;SDS011;55338;43.062;25.624;2023-04-25T07:57:04;5.77;;;2.50;;
68386;SDS011;55338;43.062;25.624;2023-04-25T07:59:31;4.90;;;2.35;;
68386;SDS011;55338;43.062;25.624;2023-04-25T08:01:57;5.07;;;2.38;;
68386;SDS011;55338;43.062;25.624;2023-04-25T08:04:23;4.73;;;2.50;;
68386;SDS011;55338;43.062;25.624;2023-04-25T08:06:50;5.05;;;2.10;;
68386;SDS011;55338;43.062;25.624;2023-04-25T08:09:16;5.55;;;2.10;;
68386;SDS011;55338;43.062;25.624;2023-04-25T08:11:41;5.43;;;2.30;;
68386;SDS011;55338;43.062;25.624;2023-04-25T08:14:07;9.25;;;2.13;;
68386;SDS011;55338;43.062;25.624;2023-04-25T08:16:33;9.02;;;3.80;;
68386;SDS011;55338;43.062;25.624;2023-04-25T08:19:00;11.27;;;3.73;;
68386;SDS011;55338;43.062;25.624;2023-04-25T08:21:25;6.38;;;3.75;;
68386;SDS011;55338;43.062;25.624;2023-04-25T08:23:52;7.88;;;3.80;;
68386;SDS011;55338;43.062;25.624;2023-04-25T08:26:18;5.15;;;3.40;;
68386;SDS011;55338;43.062;25.624;2023-04-25T08:28:44;3.97;;;1.77;;
68386;SDS011;55338;43.062;25.624;2023-04-25T08:31:09;4.55;;;1.60;;
68386;SDS011;55338;43.062;25.624;2023-04-25T08:33:35;5.10;;;2.10;;
68386;SDS011;55338;43.062;25.624;2023-04-25T08:36:02;3.55;;;1.60;;
68386;SDS011;55338;43.062;25.624;2023-04-25T08:38:28;7.82;;;3.35;;
68386;SDS011;55338;43.062;25.624;2023-04-25T08:40:54;5.90;;;3.40;;
68386;SDS011;55338;43.062;25.624;2023-04-25T08:43:21;9.02;;;2.03;;
68386;SDS011;55338;43.062;25.624;2023-04-25T08:45:50;3.03;;;1.85;;
68386;SDS011;55338;43.062;25.624;2023-04-25T08:48:19;5.60;;;2.13;;
68386;SDS011;55338;43.062;25.624;2023-04-25T08:50:49;6.45;;;2.00;;
68386;SDS011;55338;43.062;25.624;2023-04-25T08:53:17;5.03;;;2.20;;
68386;SDS011;55338;43.062;25.624;2023-04-25T08:55:58;3.63;;;2.10;;
68386;SDS011;55338;43.062;25.624;2023-04-25T08:58:24;3.33;;;1.63;;
68386;SDS011;55338;43.062;25.624;2023-04-25T09:00:52;3.47;;;1.73;;
68386;SDS011;55338;43.062;25.624;2023-04-25T09:03:18;3.90;;;1.60;;
68386;SDS011;55338;43.062;25.624;2023-04-25T09:05:44;5.47;;;2.05;;
68386;SDS011;55338;43.062;25.624;2023-04-25T09:08:10;9.15;;;2.03;;
68386;SDS011;55338;43.062;25.624;2023-04-25T09:10:36;10.80;;;2.87;;
68386;SDS011;55338;43.062;25.624;2023-04-25T09:15:31;5.68;;;1.92;;
68386;SDS011;55338;43.062;25.624;2023-04-25T09:18:01;4.65;;;2.30;;
68386;SDS011;55338;43.062;25.624;2023-04-25T09:20:26;4.70;;;2.25;;
68386;SDS011;55338;43.062;25.624;2023-04-25T09:23:03;3.70;;;2.20;;
68386;SDS011;55338;43.062;25.624;2023-04-25T09:25:34;4.30;;;2.23;;
68386;SDS011;55338;43.062;25.624;2023-04-25T09:28:05;2.90;;;1.95;;
68386;SDS011;55338;43.062;25.624;2023-04-25T09:30:32;3.17;;;2.20;;
68386;SDS011;55338;43.062;25.624;2023-04-25T09:33:05;7.97;;;2.40;;
68386;SDS011;55338;43.062;25.624;2023-04-25T09:35:38;5.70;;;2.17;;
68386;SDS011;55338;43.062;25.624;2023-04-25T09:38:09;4.70;;;2.13;;
68386;SDS011;55338;43.062;25.624;2023-04-25T09:40:40;3.78;;;1.77;;
68386;SDS011;55338;43.062;25.624;2023-04-25T09:43:10;5.50;;;2.05;;
68386;SDS011;55338;43.062;25.624;2023-04-25T09:45:48;3.25;;;1.60;;
68386;SDS011;55338;43.062;25.624;2023-04-25T09:48:17;4.82;;;1.70;;
68386;SDS011;55338;43.062;25.624;2023-04-25T09:50:44;2.93;;;1.50;;
68386;SDS011;55338;43.062;25.624;2023-04-25T09:53:10;9.75;;;1.83;;
68386;SDS011;55338;43.062;25.624;2023-04-25T09:55:36;2.90;;;1.75;;
68386;SDS011;55338;43.062;25.624;2023-04-25T09:58:06;4.45;;;1.70;;
68386;SDS011;55338;43.062;25.624;2023-04-25T10:00:33;3.30;;;1.50;;
68386;SDS011;55338;43.062;25.624;2023-04-25T10:03:03;8.32;;;3.58;;
68386;SDS011;55338;43.062;25.624;2023-04-25T10:05:32;6.45;;;1.52;;
68386;SDS011;55338;43.062;25.624;2023-04-25T10:08:02;9.70;;;3.42;;
68386;SDS011;55338;43.062;25.624;2023-04-25T10:10:29;5.13;;;3.00;;
68386;SDS011;55338;43.062;25.624;2023-04-25T10:12:58;5.63;;;2.13;;
68386;SDS011;55338;43.062;25.624;2023-04-25T10:15:24;14.68;;;4.68;;
68386;SDS011;55338;43.062;25.624;2023-04-25T10:17:50;11.77;;;5.55;;
68386;SDS011;55338;43.062;25.624;2023-04-25T10:20:16;10.73;;;5.03;;
68386;SDS011;55338;43.062;25.624;2023-04-25T10:22:44;12.38;;;5.93;;
68386;SDS011;55338;43.062;25.624;2023-04-25T10:25:11;19.65;;;7.18;;
68386;SDS011;55338;43.062;25.624;2023-04-25T10:27:38;16.20;;;5.90;;
68386;SDS011;55338;43.062;25.624;2023-04-25T10:30:08;17.92;;;6.90;;
68386;SDS011;55338;43.062;25.624;2023-04-25T10:32:37;24.77;;;8.93;;
68386;SDS011;55338;43.062;25.624;2023-04-25T10:40:42;16.52;;;7.20;;
68386;SDS011;55338;43.062;25.624;2023-04-25T10:48:51;12.20;;;6.30;;
68386;SDS011;55338;43.062;25.624;2023-04-25T10:51:35;12.02;;;6.70;;
68386;SDS011;55338;43.062;25.624;2023-04-25T10:54:05;10.23;;;6.95;;
68386;SDS011;55338;43.062;25.624;2023-04-25T10:59:05;11.30;;;7.28;;
68386;SDS011;55338;43.062;25.624;2023-04-25T11:04:21;7.57;;;4.53;;
68386;SDS011;55338;43.062;25.624;2023-04-25T11:07:10;8.38;;;4.93;;
68386;SDS011;55338;43.062;25.624;2023-04-25T11:09:48;6.45;;;3.80;;
68386;SDS011;55338;43.062;25.624;2023-04-25T11:12:15;7.80;;;3.40;;
68386;SDS011;55338;43.062;25.624;2023-04-25T11:14:42;6.20;;;2.92;;
68386;SDS011;55338;43.062;25.624;2023-04-25T11:17:07;5.88;;;2.88;;
68386;SDS011;55338;43.062;25.624;2023-04-25T11:19:34;4.35;;;2.30;;
68386;SDS011;55338;43.062;25.624;2023-04-25T11:22:00;2.80;;;1.42;;
68386;SDS011;55338;43.062;25.624;2023-04-25T11:24:28;4.07;;;2.03;;
68386;SDS011;55338;43.062;25.624;2023-04-25T11:26:55;4.65;;;2.17;;
68386;SDS011;55338;43.062;25.624;2023-04-25T11:29:23;3.65;;;2.03;;
68386;SDS011;55338;43.062;25.624;2023-04-25T11:31:51;3.65;;;1.58;;
68386;SDS011;55338;43.062;25.624;2023-04-25T11:34:18;4.47;;;1.40;;
68386;SDS011;55338;43.062;25.624;2023-04-25T11:36:45;3.07;;;1.40;;
68386;SDS011;55338;43.062;25.624;2023-04-25T11:39:11;3.92;;;2.08;;
68386;SDS011;55338;43.062;25.624;2023-04-25T11:41:40;4.32;;;1.30;;
68386;SDS011;55338;43.062;25.624;2023-04-25T11:44:07;3.13;;;1.63;;
68386;SDS011;55338;43.062;25.624;2023-04-25T11:46:36;4.20;;;1.30;;
68386;SDS011;55338;43.062;25.624;2023-04-25T11:49:02;3.88;;;1.25;;
68386;SDS011;55338;43.062;25.624;2023-04-25T11:51:29;4.13;;;1.60;;
68386;SDS011;55338;43.062;25.624;2023-04-25T11:53:57;2.88;;;1.40;;
68386;SDS011;55338;43.062;25.624;2023-04-25T11:56:22;4.57;;;1.63;;
68386;SDS011;55338;43.062;25.624;2023-04-25T11:59:01;3.47;;;1.80;;
68386;SDS011;55338;43.062;25.624;2023-04-25T12:01:30;3.10;;;1.50;;
68386;SDS011;55338;43.062;25.624;2023-04-25T12:03:57;2.90;;;1.60;;
68386;SDS011;55338;43.062;25.624;2023-04-25T12:06:30;2.57;;;1.17;;
68386;SDS011;55338;43.062;25.624;2023-04-25T12:09:07;3.75;;;1.70;;
68386;SDS011;55338;43.062;25.624;2023-04-25T12:11:42;3.55;;;1.45;;
68386;SDS011;55338;43.062;25.624;2023-04-25T12:14:25;3.30;;;2.00;;
68386;SDS011;55338;43.062;25.624;2023-04-25T12:16:52;2.95;;;1.40;;
68386;SDS011;55338;43.062;25.624;2023-04-25T12:19:22;4.68;;;1.70;;
68386;SDS011;55338;43.062;25.624;2023-04-25T12:21:48;4.22;;;1.40;;
68386;SDS011;55338;43.062;25.624;2023-04-25T12:29:49;2.90;;;1.52;;
68386;SDS011;55338;43.062;25.624;2023-04-25T12:32:16;2.70;;;1.60;;
68386;SDS011;55338;43.062;25.624;2023-04-25T12:34:43;3.25;;;1.50;;
68386;SDS011;55338;43.062;25.624;2023-04-25T12:37:08;4.30;;;2.05;;
68386;SDS011;55338;43.062;25.624;2023-04-25T12:39:35;2.97;;;1.58;;
68386;SDS011;55338;43.062;25.624;2023-04-25T12:42:01;2.60;;;1.30;;
68386;SDS011;55338;43.062;25.624;2023-04-25T12:44:27;2.90;;;1.58;;
68386;SDS011;55338;43.062;25.624;2023-04-25T12:46:53;2.80;;;1.40;;
68386;SDS011;55338;43.062;25.624;2023-04-25T12:49:19;4.70;;;1.40;;
68386;SDS011;55338;43.062;25.624;2023-04-25T12:51:45;3.88;;;1.45;;
68386;SDS011;55338;43.062;25.624;2023-04-25T12:54:11;4.70;;;1.90;;
68386;SDS011;55338;43.062;25.624;2023-04-25T12:56:38;4.28;;;1.92;;
68386;SDS011;55338;43.062;25.624;2023-04-25T12:59:03;5.20;;;1.57;;
68386;SDS011;55338;43.062;25.624;2023-04-25T13:01:29;4.57;;;2.05;;
68386;SDS011;55338;43.062;25.624;2023-04-25T13:03:55;6.03;;;1.57;;
68386;SDS011;55338;43.062;25.624;2023-04-25T13:06:21;4.20;;;2.00;;
68386;SDS011;55338;43.062;25.624;2023-04-25T13:08:47;5.78;;;1.90;;
68386;SDS011;55338;43.062;25.624;2023-04-25T13:11:13;5.93;;;2.08;;
68386;SDS011;55338;43.062;25.624;2023-04-25T13:13:42;7.60;;;2.17;;
68386;SDS011;55338;43.062;25.624;2023-04-25T13:16:09;6.18;;;2.10;;
68386;SDS011;55338;43.062;25.624;2023-04-25T13:18:35;8.25;;;2.78;;
68386;SDS011;55338;43.062;25.624;2023-04-25T13:21:01;4.22;;;1.70;;
68386;SDS011;55338;43.062;25.624;2023-04-25T13:23:27;5.33;;;2.50;;
68386;SDS011;55338;43.062;25.624;2023-04-25T13:25:54;5.28;;;2.53;;
68386;SDS011;55338;43.062;25.624;2023-04-25T13:28:20;7.80;;;3.08;;
68386;SDS011;55338;43.062;25.624;2023-04-25T13:30:46;5.93;;;2.38;;
68386;SDS011;55338;43.062;25.624;2023-04-25T13:33:13;3.53;;;1.50;;
68386;SDS011;55338;43.062;25.624;2023-04-25T13:35:40;4.32;;;1.90;;
68386;SDS011;55338;43.062;25.624;2023-04-25T13:38:06;6.57;;;1.88;;
68386;SDS011;55338;43.062;25.624;2023-04-25T13:40:32;5.45;;;2.10;;
68386;SDS011;55338;43.062;25.624;2023-04-25T13:42:58;4.00;;;1.95;;
68386;SDS011;55338;43.062;25.624;2023-04-25T13:45:24;4.97;;;2.08;;
68386;SDS011;55338;43.062;25.624;2023-04-25T13:47:50;10.55;;;2.42;;
68386;SDS011;55338;43.062;25.624;2023-04-25T13:50:16;5.30;;;2.10;;
68386;SDS011;55338;43.062;25.624;2023-04-25T13:52:42;4.55;;;1.85;;
68386;SDS011;55338;43.062;25.624;2023-04-25T13:55:08;4.60;;;1.80;;
68386;SDS011;55338;43.062;25.624;2023-04-25T13:57:34;4.53;;;1.85;;
68386;SDS011;55338;43.062;25.624;2023-04-25T14:00:01;4.22;;;1.85;;
68386;SDS011;55338;43.062;25.624;2023-04-25T14:02:33;3.73;;;1.70;;
68386;SDS011;55338;43.062;25.624;2023-04-25T14:05:00;4.65;;;2.10;;
68386;SDS011;55338;43.062;25.624;2023-04-25T14:07:26;3.67;;;1.60;;
68386;SDS011;55338;43.062;25.624;2023-04-25T14:09:52;4.43;;;1.88;;
68386;SDS011;55338;43.062;25.624;2023-04-25T14:12:18;3.37;;;1.60;;
68386;SDS011;55338;43.062;25.624;2023-04-25T14:14:43;5.63;;;2.28;;
68386;SDS011;55338;43.062;25.624;2023-04-25T14:17:09;6.80;;;1.80;;
68386;SDS011;55338;43.062;25.624;2023-04-25T14:19:35;6.93;;;2.17;;
68386;SDS011;55338;43.062;25.624;2023-04-25T14:22:03;3.30;;;1.60;;
68386;SDS011;55338;43.062;25.624;2023-04-25T14:24:29;4.43;;;2.15;;
68386;SDS011;55338;43.062;25.624;2023-04-25T14:26:55;6.47;;;1.67;;
68386;SDS011;55338;43.062;25.624;2023-04-25T14:29:21;3.83;;;2.00;;
68386;SDS011;55338;43.062;25.624;2023-04-25T14:31:47;3.72;;;1.75;;
68386;SDS011;55338;43.062;25.624;2023-04-25T14:34:13;3.80;;;1.90;;
68386;SDS011;55338;43.062;25.624;2023-04-25T14:36:38;4.47;;;2.10;;
68386;SDS011;55338;43.062;25.624;2023-04-25T14:39:04;5.28;;;1.98;;
68386;SDS011;55338;43.062;25.624;2023-04-25T14:41:30;5.93;;;2.43;;
68386;SDS011;55338;43.062;25.624;2023-04-25T14:43:56;4.25;;;1.27;;
68386;SDS011;55338;43.062;25.624;2023-04-25T14:46:22;3.47;;;1.30;;
68386;SDS011;55338;43.062;25.624;2023-04-25T14:48:51;2.63;;;1.17;;
68386;SDS011;55338;43.062;25.624;2023-04-25T14:51:17;2.65;;;1.00;;